Time;durP1;ratioP1;P1;durP2;ratioP2;P2;SDS_P1;SDS_P2;PMS_P1;PMS_P2;Temp;Humidity;BMP_temperature;BMP_pressure;BME280_temperature;BME280_humidity;BME280_pressure;Samples;Min_cycle;Max_cycle;Signal;HPM_P1;HPM_P2
2024/02/26 00:01:14;;;;;;;23.27;13.35;;;;;;;11.21;100.00;99420.91;5090607;28;20098;-46
2024/02/26 00:03:44;;;;;;;22.42;13.63;;;;;;;11.28;100.00;99420.31;5090287;28;20044;-46
2024/02/26 00:06:12;;;;;;;25.05;14.60;;;;;;;11.21;100.00;99429.78;5090349;28;20135;-45
2024/02/26 00:08:41;;;;;;;23.55;13.80;;;;;;;11.27;100.00;99421.28;5090520;28;20052;-46
2024/02/26 00:11:09;;;;;;;21.17;13.43;;;;;;;11.23;100.00;99425.16;5090296;28;20044;-45
2024/02/26 00:13:39;;;;;;;20.00;13.27;;;;;;;11.17;100.00;99426.47;5090296;28;20052;-45
2024/02/26 00:16:07;;;;;;;19.98;12.63;;;;;;;11.15;100.00;99424.88;5090200;28;20043;-46
2024/02/26 00:18:35;;;;;;;20.40;13.18;;;;;;;11.23;100.00;99421.66;5090290;28;20048;-45
2024/02/26 00:21:05;;;;;;;21.42;13.13;;;;;;;11.13;100.00;99410.81;5090133;28;20048;-46
2024/02/26 00:23:33;;;;;;;21.23;13.00;;;;;;;11.14;100.00;99413.38;5090368;28;20072;-46
2024/02/26 00:26:03;;;;;;;22.73;13.80;;;;;;;11.26;100.00;99416.91;5091112;28;20346;-46
2024/02/26 00:28:32;;;;;;;21.95;12.95;;;;;;;11.30;100.00;99404.19;5093548;28;20146;-45
2024/02/26 00:31:02;;;;;;;22.02;12.88;;;;;;;11.28;100.00;99414.97;5093548;28;20105;-46
2024/02/26 00:33:30;;;;;;;19.98;12.65;;;;;;;11.26;100.00;99410.72;5093385;28;20063;-47
2024/02/26 00:35:59;;;;;;;19.63;12.20;;;;;;;11.25;100.00;99409.88;5093416;28;20052;-45
2024/02/26 00:38:28;;;;;;;20.85;12.23;;;;;;;11.23;100.00;99406.47;5093786;28;20052;-47
2024/02/26 00:40:56;;;;;;;19.20;11.60;;;;;;;11.26;100.00;99402.72;5093464;28;20044;-45
2024/02/26 00:43:25;;;;;;;19.65;12.07;;;;;;;11.32;100.00;99403.09;5093397;28;20055;-47
2024/02/26 00:45:53;;;;;;;19.95;11.98;;;;;;;11.38;100.00;99399.09;5093332;28;20052;-46
2024/02/26 00:48:25;;;;;;;19.67;12.45;;;;;;;11.36;100.00;99399.22;5093749;28;20181;-49
2024/02/26 00:50:54;;;;;;;21.80;12.43;;;;;;;11.34;100.00;99398.50;5093139;28;20492;-46
2024/02/26 00:53:22;;;;;;;20.55;12.18;;;;;;;11.31;100.00;99404.09;5092937;28;20043;-45
2024/02/26 00:55:50;;;;;;;22.42;12.02;;;;;;;11.31;100.00;99404.09;5093071;28;20094;-46
2024/02/26 00:58:19;;;;;;;20.67;12.00;;;;;;;11.32;100.00;99400.44;5093062;28;20134;-48
2024/02/26 01:00:48;;;;;;;18.33;11.93;;;;;;;11.30;100.00;99396.19;5093028;28;20052;-45
2024/02/26 01:03:18;;;;;;;19.25;12.25;;;;;;;11.33;100.00;99388.78;5092733;28;20349;-47
2024/02/26 01:05:48;;;;;;;21.88;11.85;;;;;;;11.28;100.00;99382.94;5092932;28;20052;-49
2024/02/26 01:08:19;;;;;;;21.00;11.90;;;;;;;11.33;100.00;99383.44;5093017;28;20070;-48
2024/02/26 01:10:48;;;;;;;19.08;11.80;;;;;;;11.37;100.00;99386.72;5092983;28;20493;-45
2024/02/26 01:13:16;;;;;;;18.73;11.85;;;;;;;11.39;100.00;99385.66;5093147;28;20055;-46
2024/02/26 01:15:44;;;;;;;19.77;11.13;;;;;;;11.29;100.00;99384.66;5092650;28;20048;-47
2024/02/26 01:18:13;;;;;;;22.10;12.18;;;;;;;11.36;100.00;99385.88;5092759;28;20039;-46
2024/02/26 01:20:41;;;;;;;20.38;11.98;;;;;;;11.36;100.00;99380.53;5092727;28;20052;-47
2024/02/26 01:23:11;;;;;;;22.13;12.18;;;;;;;11.40;100.00;99382.00;5092655;28;20040;-47
2024/02/26 01:25:39;;;;;;;20.17;11.98;;;;;;;11.32;100.00;99373.75;5092518;28;20129;-47
2024/02/26 01:28:08;;;;;;;22.13;12.70;;;;;;;11.25;100.00;99377.00;5092369;28;20047;-45
2024/02/26 01:30:36;;;;;;;22.20;13.75;;;;;;;11.28;100.00;99382.09;5092732;28;20071;-45
2024/02/26 01:33:05;;;;;;;23.25;12.93;;;;;;;11.26;100.00;99381.34;5092421;28;20044;-47
2024/02/26 01:35:33;;;;;;;22.17;13.25;;;;;;;11.26;100.00;99371.53;5092397;28;20125;-46
2024/02/26 01:38:02;;;;;;;22.73;13.75;;;;;;;11.21;100.00;99368.38;5092099;28;20074;-45
2024/02/26 01:40:31;;;;;;;24.45;14.13;;;;;;;11.18;100.00;99372.13;5092120;28;20385;-46
2024/02/26 01:43:00;;;;;;;21.63;13.73;;;;;;;11.13;100.00;99371.63;5092555;28;20052;-48
2024/02/26 01:45:31;;;;;;;23.85;14.38;;;;;;;11.13;100.00;99368.13;5092308;28;20056;-46
2024/02/26 01:48:00;;;;;;;26.30;14.25;;;;;;;11.11;100.00;99364.72;5091100;28;20133;-45
2024/02/26 01:50:30;;;;;;;23.15;13.50;;;;;;;11.10;100.00;99369.22;5092210;28;20090;-45
2024/02/26 01:52:58;;;;;;;21.75;13.48;;;;;;;11.19;100.00;99367.63;5091961;28;20048;-47
2024/02/26 01:55:27;;;;;;;23.75;13.95;;;;;;;11.19;100.00;99362.28;5091760;28;20060;-49
2024/02/26 01:57:57;;;;;;;23.23;13.82;;;;;;;11.15;100.00;99364.34;5092170;28;20048;-47
2024/02/26 02:00:26;;;;;;;19.90;13.00;;;;;;;11.22;100.00;99367.41;5092003;28;20185;-46
2024/02/26 02:02:55;;;;;;;23.92;13.93;;;;;;;11.24;100.00;99364.63;5091789;28;20154;-46
2024/02/26 02:05:25;;;;;;;22.88;13.82;;;;;;;11.24;100.00;99361.94;5091767;28;20101;-46
2024/02/26 02:07:55;;;;;;;20.08;13.38;;;;;;;11.25;100.00;99360.97;5091939;28;20441;-45
2024/02/26 02:10:25;;;;;;;21.60;12.63;;;;;;;11.24;100.00;99362.78;5091736;28;20101;-46
2024/02/26 02:12:54;;;;;;;22.45;13.20;;;;;;;11.26;100.00;99363.53;5091652;28;20048;-44
2024/02/26 02:15:24;;;;;;;21.63;12.98;;;;;;;11.29;100.00;99357.97;5091544;28;20051;-49
2024/02/26 02:17:52;;;;;;;22.33;12.90;;;;;;;11.21;100.00;99359.53;5091481;28;20084;-47
2024/02/26 02:20:27;;;;;;;20.83;12.85;;;;;;;11.24;100.00;99360.13;5091479;28;20085;-45
2024/02/26 02:23:16;;;;;;;20.98;12.13;;;;;;;11.21;100.00;99363.03;5091550;28;20350;-48
2024/02/26 02:25:44;;;;;;;21.52;12.90;;;;;;;11.25;100.00;99359.16;5091813;28;20052;-45
2024/02/26 02:28:12;;;;;;;21.83;12.63;;;;;;;11.15;100.00;99356.34;5090313;28;20520;-44
2024/02/26 02:30:41;;;;;;;22.90;13.93;;;;;;;11.14;100.00;99365.31;5091426;28;20040;-45
2024/02/26 02:33:11;;;;;;;22.45;13.43;;;;;;;11.21;100.00;99365.72;5091618;28;20421;-47
2024/02/26 02:35:43;;;;;;;20.25;12.73;;;;;;;11.23;100.00;99358.44;5091893;28;20143;-47
2024/02/26 02:38:11;;;;;;;22.95;13.55;;;;;;;11.20;100.00;99360.50;5091580;28;20039;-46
2024/02/26 02:40:39;;;;;;;20.40;13.05;;;;;;;11.21;100.00;99363.03;5091384;28;20051;-45
2024/02/26 02:43:08;;;;;;;22.05;12.80;;;;;;;11.17;100.00;99353.56;5091008;28;20044;-47
2024/02/26 02:45:36;;;;;;;21.85;12.82;;;;;;;11.12;100.00;99355.75;5091082;28;20043;-44
2024/02/26 02:48:05;;;;;;;21.50;12.85;;;;;;;11.18;100.00;99360.59;5090957;28;20500;-46
2024/02/26 02:50:34;;;;;;;21.70;13.55;;;;;;;11.20;100.00;99364.00;5090836;28;20083;-46
2024/02/26 02:53:03;;;;;;;21.40;13.25;;;;;;;11.24;100.00;99368.13;5091146;28;20098;-47
2024/02/26 02:55:32;;;;;;;24.85;13.88;;;;;;;11.22;100.00;99369.22;5090947;28;20097;-45
2024/02/26 02:58:00;;;;;;;23.13;13.18;;;;;;;11.21;100.00;99379.06;5089628;28;20056;-45
2024/02/26 03:00:29;;;;;;;24.58;13.30;;;;;;;11.23;100.00;99371.78;5090929;28;20477;-45
2024/02/26 03:03:00;;;;;;;22.02;13.57;;;;;;;11.24;100.00;99375.28;5091049;28;20050;-46
2024/02/26 03:05:29;;;;;;;22.02;14.25;;;;;;;11.18;100.00;99371.25;5091078;28;20083;-45
2024/02/26 03:07:56;;;;;;;23.10;14.02;;;;;;;11.18;100.00;99371.25;5091183;28;20048;-46
2024/02/26 03:10:26;;;;;;;21.40;13.55;;;;;;;11.21;100.00;99365.72;5091265;28;20097;-44
2024/02/26 03:12:56;;;;;;;23.38;14.63;;;;;;;11.19;100.00;99362.28;5091000;28;20048;-48
2024/02/26 03:15:24;;;;;;;24.35;15.10;;;;;;;11.13;100.00;99363.63;5091300;28;20047;-46
2024/02/26 03:17:52;;;;;;;22.42;13.88;;;;;;;11.14;100.00;99368.00;5090895;28;20056;-44
2024/02/26 03:20:21;;;;;;;24.55;14.77;;;;;;;11.14;100.00;99364.47;5090663;28;20081;-46
2024/02/26 03:22:49;;;;;;;23.92;14.45;;;;;;;11.09;100.00;99358.63;5090736;28;20048;-46
2024/02/26 03:25:18;;;;;;;22.55;14.45;;;;;;;11.12;100.00;99363.75;5090746;28;20040;-46
2024/02/26 03:27:48;;;;;;;25.65;15.38;;;;;;;11.14;100.00;99359.13;5090701;28;20089;-45
2024/02/26 03:30:16;;;;;;;24.20;14.85;;;;;;;11.14;100.00;99357.31;5090627;28;20051;-51
2024/02/26 03:32:46;;;;;;;25.77;14.57;;;;;;;11.13;100.00;99363.63;5090677;28;20048;-45
2024/02/26 03:35:15;;;;;;;22.27;14.48;;;;;;;11.21;100.00;99352.38;5090637;28;20040;-45
2024/02/26 03:37:43;;;;;;;25.02;15.50;;;;;;;11.16;100.00;99355.38;5090666;28;20056;-46
2024/02/26 03:40:14;;;;;;;27.55;15.40;;;;;;;11.04;100.00;99350.13;5090644;28;20040;-45
2024/02/26 03:42:42;;;;;;;25.92;15.77;;;;;;;11.02;100.00;99355.59;5090611;28;20469;-45
2024/02/26 03:45:13;;;;;;;24.45;15.57;;;;;;;10.98;100.00;99353.25;5090614;28;20044;-47
2024/02/26 03:47:41;;;;;;;25.70;15.10;;;;;;;10.99;100.00;99354.94;5090398;28;20043;-46
2024/02/26 03:50:10;;;;;;;25.70;14.95;;;;;;;10.81;100.00;99355.41;5090292;28;20084;-47
2024/02/26 03:52:38;;;;;;;23.23;15.55;;;;;;;10.88;100.00;99343.28;5090535;28;20055;-44
2024/02/26 03:55:07;;;;;;;26.08;15.25;;;;;;;10.75;100.00;99342.50;5090261;28;20060;-46
2024/02/26 03:57:37;;;;;;;25.55;15.73;;;;;;;10.87;100.00;99341.59;5090420;28;20061;-45
2024/02/26 04:00:06;;;;;;;23.77;14.90;;;;;;;10.73;100.00;99343.59;5091315;28;20454;-47
2024/02/26 04:02:36;;;;;;;24.95;15.07;;;;;;;10.60;100.00;99343.66;5094111;28;20105;-46
2024/02/26 04:05:05;;;;;;;25.98;15.40;;;;;;;10.83;100.00;99334.78;5094373;28;20048;-47
2024/02/26 04:07:33;;;;;;;25.35;15.63;;;;;;;10.83;100.00;99340.13;5094352;28;20040;-46
2024/02/26 04:10:04;;;;;;;25.27;15.55;;;;;;;10.72;100.00;99337.44;5093887;28;20051;-47
2024/02/26 04:12:34;;;;;;;23.57;14.73;;;;;;;10.75;100.00;99341.66;5094059;28;20092;-46
2024/02/26 04:15:03;;;;;;;25.08;14.90;;;;;;;10.74;100.00;99347.97;5093792;28;20055;-46
2024/02/26 04:17:31;;;;;;;24.02;14.13;;;;;;;10.82;100.00;99345.59;5094130;28;20083;-46
2024/02/26 04:20:01;;;;;;;22.48;13.40;;;;;;;10.87;100.00;99346.91;5093757;28;20101;-45
2024/02/26 04:22:29;;;;;;;23.15;13.48;;;;;;;10.74;100.00;99339.97;5093845;28;20048;-46
2024/02/26 04:24:58;;;;;;;20.95;12.60;;;;;;;10.58;100.00;99338.44;5092356;28;20488;-46
2024/02/26 04:27:26;;;;;;;22.75;12.88;;;;;;;10.47;100.00;99345.53;5093766;28;20123;-46
2024/02/26 04:29:54;;;;;;;20.00;13.05;;;;;;;10.68;100.00;99351.09;5093720;28;20059;-46
2024/02/26 04:32:23;;;;;;;22.70;13.68;;;;;;;10.81;100.00;99352.72;5093667;28;20140;-45
2024/02/26 04:34:51;;;;;;;23.20;13.77;;;;;;;10.81;100.00;99346.56;5093656;28;20110;-45
2024/02/26 04:37:21;;;;;;;21.73;13.15;;;;;;;10.69;100.00;99342.97;5093528;28;20471;-46
2024/02/26 04:39:50;;;;;;;21.88;13.38;;;;;;;10.60;100.00;99339.16;5093525;28;20139;-45
2024/02/26 04:42:18;;;;;;;20.60;12.77;;;;;;;10.56;100.00;99336.84;5093085;28;20048;-46
2024/02/26 04:44:47;;;;;;;22.30;13.88;;;;;;;10.66;100.00;99343.22;5093534;28;20109;-46
2024/02/26 04:47:15;;;;;;;24.02;15.10;;;;;;;10.68;100.00;99346.59;5093475;28;20572;-47
2024/02/26 04:49:43;;;;;;;22.63;13.80;;;;;;;10.65;100.00;99341.50;5093239;28;20040;-45
2024/02/26 04:52:12;;;;;;;21.73;13.00;;;;;;;10.73;100.00;99344.47;5093124;28;20040;-45
2024/02/26 04:54:42;;;;;;;22.90;14.05;;;;;;;10.69;100.00;99331.44;5092824;28;20131;-46
2024/02/26 04:57:10;;;;;;;22.83;13.93;;;;;;;10.73;100.00;99331.13;5093424;28;20181;-46
2024/02/26 04:59:40;;;;;;;22.70;13.55;;;;;;;10.72;100.00;99325.91;5093133;28;20052;-45
2024/02/26 05:02:09;;;;;;;22.90;14.13;;;;;;;10.80;100.00;99323.47;5093165;28;20076;-47
2024/02/26 05:04:38;;;;;;;22.17;13.25;;;;;;;10.73;100.00;99320.44;5092934;28;20040;-46
2024/02/26 05:07:06;;;;;;;22.10;13.32;;;;;;;10.79;100.00;99319.97;5092665;28;20052;-45
2024/02/26 05:09:35;;;;;;;22.17;13.13;;;;;;;10.69;100.00;99324.28;5092739;28;20495;-45
2024/02/26 05:12:05;;;;;;;22.25;13.43;;;;;;;10.71;100.00;99322.38;5092781;28;20052;-45
2024/02/26 05:14:34;;;;;;;21.40;13.43;;;;;;;10.64;100.00;99322.97;5092903;28;20539;-47
2024/02/26 05:17:02;;;;;;;23.17;13.68;;;;;;;10.55;100.00;99325.34;5092672;28;20112;-46
2024/02/26 05:19:31;;;;;;;22.15;13.35;;;;;;;10.65;100.00;99333.50;5093220;28;20075;-47
2024/02/26 05:21:59;;;;;;;23.55;13.90;;;;;;;10.71;100.00;99330.38;5092724;28;20068;-48
2024/02/26 05:24:28;;;;;;;24.00;13.70;;;;;;;10.75;100.00;99333.66;5092576;28;20485;-45
2024/02/26 05:26:56;;;;;;;21.50;13.32;;;;;;;10.72;100.00;99326.75;5092717;28;20078;-47
2024/02/26 05:29:26;;;;;;;24.35;14.73;;;;;;;10.76;100.00;99325.53;5092576;28;20051;-47
2024/02/26 05:31:55;;;;;;;24.13;13.63;;;;;;;10.83;100.00;99325.94;5092672;28;20040;-45
2024/02/26 05:34:23;;;;;;;21.13;13.93;;;;;;;10.82;100.00;99332.25;5092297;28;20055;-47
2024/02/26 05:36:52;;;;;;;25.40;13.27;;;;;;;10.82;100.00;99326.91;5092394;28;20174;-46
2024/02/26 05:39:20;;;;;;;23.60;13.35;;;;;;;10.91;100.00;99328.03;5091974;28;20593;-47
2024/02/26 05:41:50;;;;;;;23.92;14.18;;;;;;;10.85;100.00;99327.50;5092160;28;20040;-46
2024/02/26 05:44:18;;;;;;;24.10;13.95;;;;;;;10.88;100.00;99321.94;5092400;28;20052;-44
2024/02/26 05:46:48;;;;;;;22.80;14.35;;;;;;;10.89;100.00;99322.78;5092246;28;20047;-44
2024/02/26 05:49:16;;;;;;;25.17;13.95;;;;;;;10.92;100.00;99327.06;5092051;28;20131;-45
2024/02/26 05:51:44;;;;;;;23.27;14.02;;;;;;;10.83;100.00;99332.13;5092278;28;20055;-45
2024/02/26 05:54:13;;;;;;;25.70;14.20;;;;;;;10.77;100.00;99332.56;5091895;28;20055;-45
2024/02/26 05:56:42;;;;;;;24.98;14.20;;;;;;;10.84;100.00;99325.81;5091710;28;20210;-44
2024/02/26 05:59:11;;;;;;;25.75;14.85;;;;;;;10.92;100.00;99327.06;5091647;28;20485;-45
2024/02/26 06:01:39;;;;;;;23.48;14.27;;;;;;;10.88;100.00;99332.59;5092098;28;20040;-45
2024/02/26 06:04:09;;;;;;;24.23;14.57;;;;;;;10.99;100.00;99328.28;5092059;28;20451;-45
2024/02/26 06:06:37;;;;;;;24.65;13.88;;;;;;;10.92;100.00;99329.72;5092833;28;20381;-45
2024/02/26 06:09:11;;;;;;;;;;;;;;;10.80;100.00;99329.66;5092103;28;20468;-45
2024/02/26 06:11:39;;;;;;;23.75;14.57;;;;;;;10.86;100.00;99334.56;5091646;28;19926;-46
2024/02/26 06:14:08;;;;;;;25.48;14.50;;;;;;;10.71;100.00;99330.38;5091679;28;20043;-46
2024/02/26 06:16:36;;;;;;;26.30;14.77;;;;;;;10.84;100.00;99330.31;5091893;28;20140;-45
2024/02/26 06:19:05;;;;;;;26.90;14.43;;;;;;;10.77;100.00;99340.56;5091440;28;20052;-46
2024/02/26 06:21:35;;;;;;;28.73;15.35;;;;;;;10.85;100.00;99338.19;5091417;28;20147;-46
2024/02/26 06:24:04;;;;;;;30.35;15.48;;;;;;;10.89;100.00;99339.63;5090240;28;20072;-44
2024/02/26 06:26:33;;;;;;;27.67;15.32;;;;;;;10.93;100.00;99350.09;5091183;28;20048;-45
2024/02/26 06:29:01;;;;;;;27.15;14.82;;;;;;;10.93;100.00;99350.94;5091217;28;20044;-44
2024/02/26 06:31:30;;;;;;;25.95;14.68;;;;;;;10.85;100.00;99356.84;5091348;28;20421;-45
2024/02/26 06:33:58;;;;;;;28.67;15.13;;;;;;;10.94;100.00;99355.31;5091382;28;20051;-44
2024/02/26 06:36:26;;;;;;;26.38;14.68;;;;;;;10.88;100.00;99361.09;5090959;28;20059;-45
2024/02/26 06:38:56;;;;;;;25.45;15.00;;;;;;;10.75;100.00;99357.66;5091301;28;20125;-47
2024/02/26 06:41:27;;;;;;;25.70;14.77;;;;;;;10.85;100.00;99356.84;5091363;28;20089;-48
2024/02/26 06:43:55;;;;;;;24.25;14.05;;;;;;;10.89;100.00;99355.66;5091331;28;20044;-46
2024/02/26 06:46:23;;;;;;;25.90;14.88;;;;;;;10.87;100.00;99354.06;5091081;28;20126;-45
2024/02/26 06:48:53;;;;;;;24.45;14.10;;;;;;;11.05;100.00;99349.16;5091306;28;20163;-45
2024/02/26 06:51:23;;;;;;;23.63;13.68;;;;;;;11.08;100.00;99349.75;5090833;28;20052;-43
2024/02/26 06:53:51;;;;;;;23.83;14.27;;;;;;;11.22;100.00;99348.72;5090633;28;20055;-46
2024/02/26 06:56:21;;;;;;;23.92;14.02;;;;;;;11.24;100.00;99345.94;5090510;28;20146;-47
2024/02/26 06:58:50;;;;;;;22.05;13.93;;;;;;;11.14;100.00;99343.13;5090824;28;20511;-44
2024/02/26 07:01:19;;;;;;;24.98;14.88;;;;;;;11.20;100.00;99348.00;5090634;28;20044;-45
2024/02/26 07:03:47;;;;;;;26.98;15.38;;;;;;;11.14;100.00;99351.13;5090593;28;20044;-46
2024/02/26 07:06:16;;;;;;;26.88;15.65;;;;;;;11.15;100.00;99347.50;5090703;28;20071;-45
2024/02/26 07:08:44;;;;;;;26.10;15.40;;;;;;;11.13;100.00;99352.09;5090181;28;20071;-45
2024/02/26 07:11:13;;;;;;;26.23;16.10;;;;;;;11.29;100.00;99357.97;5090574;28;20048;-45
2024/02/26 07:13:42;;;;;;;26.40;15.60;;;;;;;11.17;100.00;99354.41;5090635;28;20040;-45
2024/02/26 07:16:11;;;;;;;26.00;15.43;;;;;;;11.32;100.00;99355.06;5090688;28;20070;-44
2024/02/26 07:18:40;;;;;;;27.75;15.70;;;;;;;11.26;100.00;99357.34;5090553;28;20448;-45
2024/02/26 07:21:09;;;;;;;26.25;16.40;;;;;;;11.36;100.00;99352.97;5090355;28;20089;-44
2024/02/26 07:23:37;;;;;;;30.50;17.17;;;;;;;11.18;100.00;99352.56;5090683;28;20101;-45
2024/02/26 07:26:08;;;;;;;27.70;16.55;;;;;;;11.38;100.00;99362.56;5090624;28;20424;-51
2024/02/26 07:28:36;;;;;;;27.50;16.77;;;;;;;11.50;100.00;99360.78;5090527;28;20059;-46
2024/02/26 07:31:06;;;;;;;29.90;17.77;;;;;;;11.61;100.00;99357.28;5090325;28;20040;-45
2024/02/26 07:33:34;;;;;;;31.27;17.55;;;;;;;11.78;100.00;99355.94;5090350;28;20126;-44
2024/02/26 07:36:02;;;;;;;29.33;17.73;;;;;;;11.73;100.00;99358.97;5092850;28;20058;-44
2024/02/26 07:38:31;;;;;;;28.98;18.08;;;;;;;11.75;100.00;99359.69;5094329;28;20044;-45
2024/02/26 07:41:10;;;;;;;26.90;17.48;;;;;;;11.83;100.00;99369.81;5094720;28;20070;-46
2024/02/26 07:43:39;;;;;;;26.73;16.23;;;;;;;11.88;100.00;99365.81;5094778;28;20439;-45
2024/02/26 07:46:08;;;;;;;27.67;16.05;;;;;;;11.95;100.00;99376.84;5094581;28;20074;-46
2024/02/26 07:48:36;;;;;;;24.27;16.30;;;;;;;12.00;100.00;99380.03;5094795;28;20098;-46
2024/02/26 07:51:05;;;;;;;25.58;16.15;;;;;;;12.00;100.00;99370.19;5094568;28;20048;-46
2024/02/26 07:53:33;;;;;;;27.92;17.10;;;;;;;12.04;100.00;99371.63;5094165;28;20051;-44
2024/02/26 07:56:03;;;;;;;29.38;17.15;;;;;;;12.09;100.00;99368.59;5094379;28;20052;-45
2024/02/26 07:58:33;;;;;;;29.38;18.15;;;;;;;11.97;100.00;99370.44;5093886;28;20071;-45
2024/02/26 08:01:01;;;;;;;27.25;18.33;;;;;;;12.04;100.00;99371.63;5094167;28;20102;-45
2024/02/26 08:03:31;;;;;;;28.75;19.20;;;;;;;12.08;100.00;99374.06;5094209;28;20048;-46
2024/02/26 08:06:00;;;;;;;30.52;18.55;;;;;;;12.05;100.00;99383.16;5094171;28;20556;-45
2024/02/26 08:08:28;;;;;;;31.23;20.08;;;;;;;11.94;100.00;99389.38;5094074;28;20044;-46
2024/02/26 08:10:57;;;;;;;29.42;18.55;;;;;;;12.06;100.00;99384.00;5093691;28;20057;-43
2024/02/26 08:13:26;;;;;;;31.90;20.33;;;;;;;11.98;100.00;99393.50;5093223;28;20540;-44
2024/02/26 08:15:55;;;;;;;32.97;21.10;;;;;;;12.09;100.00;99386.47;5093399;28;20139;-44
2024/02/26 08:18:23;;;;;;;34.83;21.70;;;;;;;12.06;100.00;99384.84;5093334;28;20047;-44
2024/02/26 08:20:53;;;;;;;35.33;21.73;;;;;;;12.15;100.00;99388.63;5093059;28;20048;-43
2024/02/26 08:23:22;;;;;;;35.53;22.17;;;;;;;12.33;100.00;99390.66;5093259;28;20133;-45
2024/02/26 08:25:50;;;;;;;33.63;22.40;;;;;;;12.46;100.00;99395.88;5093173;28;20473;-45
2024/02/26 08:28:19;;;;;;;37.45;22.15;;;;;;;12.56;100.00;99391.47;5093141;28;20416;-45
2024/02/26 08:30:47;;;;;;;33.65;22.05;;;;;;;12.61;100.00;99391.94;5091193;28;20080;-45
2024/02/26 08:33:16;;;;;;;37.95;23.60;;;;;;;12.63;100.00;99386.44;5093529;28;20076;-43
2024/02/26 08:35:45;;;;;;;37.70;22.98;;;;;;;12.63;100.00;99385.59;5092726;28;20044;-45
2024/02/26 08:38:15;;;;;;;36.10;23.48;;;;;;;12.58;100.00;99386.84;5092836;28;20040;-44
2024/02/26 08:40:44;;;;;;;35.55;23.40;;;;;;;12.69;100.00;99380.59;5092431;28;20493;-44
2024/02/26 08:43:12;;;;;;;36.65;23.98;;;;;;;12.65;100.00;99386.34;5092956;28;20094;-48
2024/02/26 08:45:41;;;;;;;36.33;23.65;;;;;;;12.77;100.00;99379.97;5093140;28;20135;-45
2024/02/26 08:48:10;;;;;;;38.78;23.25;;;;;;;12.76;100.00;99389.00;5089763;28;20055;-46
2024/02/26 08:50:39;;;;;;;36.95;23.70;;;;;;;12.75;100.00;99393.50;5093556;28;20092;-45
2024/02/26 08:53:07;;;;;;;37.50;24.25;;;;;;;12.80;100.00;99395.78;5093036;28;20044;-46
2024/02/26 08:55:37;;;;;;;37.50;23.55;;;;;;;12.87;100.00;99396.97;5092877;28;20052;-45
2024/02/26 08:58:06;;;;;;;36.90;24.33;;;;;;;12.78;100.00;99392.38;5093464;28;20079;-43
2024/02/26 09:00:34;;;;;;;39.15;24.83;;;;;;;12.58;100.00;99389.53;5092877;28;20338;-45
2024/02/26 09:03:03;;;;;;;37.42;24.25;;;;;;;12.47;100.00;99389.56;5092979;28;20055;-47
2024/02/26 09:05:33;;;;;;;41.92;25.92;;;;;;;12.41;100.00;99384.69;5092780;28;20107;-47
2024/02/26 09:08:01;;;;;;;47.20;26.08;;;;;;;12.09;100.00;99391.81;5092547;28;20052;-46
2024/02/26 09:10:31;;;;;;;38.90;25.02;;;;;;;12.16;100.00;99401.00;5092556;28;20044;-46
2024/02/26 09:13:02;;;;;;;44.55;25.20;;;;;;;12.22;100.00;99401.38;5092852;28;20055;-47
2024/02/26 09:15:30;;;;;;;43.22;26.10;;;;;;;12.19;100.00;99398.13;5092973;28;20421;-44
2024/02/26 09:17:59;;;;;;;41.33;26.10;;;;;;;12.38;100.00;99400.16;5092610;28;20083;-47
2024/02/26 09:20:28;;;;;;;40.25;25.98;;;;;;;12.48;100.00;99401.94;5092284;28;20499;-47
2024/02/26 09:22:56;;;;;;;41.88;27.30;;;;;;;12.65;100.00;99405.09;5092329;28;20101;-44
2024/02/26 09:25:24;;;;;;;37.92;25.77;;;;;;;12.55;100.00;99405.84;5091835;28;20048;-46
2024/02/26 09:27:52;;;;;;;40.28;26.15;;;;;;;12.56;100.00;99402.19;5092463;28;20052;-44
2024/02/26 09:30:21;;;;;;;41.97;26.88;;;;;;;12.51;100.00;99403.53;5092476;28;20130;-47
2024/02/26 09:32:50;;;;;;;39.55;26.02;;;;;;;12.58;100.00;99405.56;5092358;28;20475;-46
2024/02/26 09:35:18;;;;;;;42.40;28.70;;;;;;;12.46;100.00;99403.91;5092226;28;20040;-44
2024/02/26 09:37:48;;;;;;;42.92;28.17;;;;;;;12.46;100.00;99403.06;5092250;28;20044;-45
2024/02/26 09:40:17;;;;;;;41.33;27.13;;;;;;;12.50;100.00;99410.69;5092447;28;20040;-46
2024/02/26 09:42:46;;;;;;;45.05;27.92;;;;;;;12.51;100.00;99404.38;5092340;28;20059;-47
2024/02/26 09:45:19;;;;;;;40.67;27.60;;;;;;;12.53;100.00;99402.41;5092575;28;20079;-45
2024/02/26 09:47:50;;;;;;;40.30;27.95;;;;;;;12.74;100.00;99410.53;5092216;28;20052;-48
2024/02/26 09:50:22;;;;;;;41.95;28.55;;;;;;;12.67;100.00;99419.19;5091854;28;20053;-47
2024/02/26 09:52:52;;;;;;;40.55;26.40;;;;;;;12.72;100.00;99415.13;5092100;28;20447;-46
2024/02/26 09:55:21;;;;;;;43.83;27.77;;;;;;;12.69;100.00;99422.56;5091429;28;20052;-45
2024/02/26 09:57:52;;;;;;;43.35;27.58;;;;;;;12.74;100.00;99415.88;5091483;28;20048;-45
2024/02/26 10:00:23;;;;;;;40.55;27.10;;;;;;;12.95;100.00;99421.28;5091425;28;20056;-46
2024/02/26 10:02:53;;;;;;;41.50;26.52;;;;;;;12.90;100.00;99420.78;5091491;28;20056;-45
2024/02/26 10:05:22;;;;;;;40.13;26.83;;;;;;;13.03;100.00;99421.50;5091696;28;20052;-45
2024/02/26 10:07:55;;;;;;;39.00;26.23;;;;;;;13.06;100.00;99417.69;5090848;28;20081;-48
2024/02/26 10:10:23;;;;;;;35.85;24.63;;;;;;;13.10;100.00;99408.44;5091089;28;20055;-46
2024/02/26 10:12:52;;;;;;;37.78;24.05;;;;;;;12.99;100.00;99416.50;5090720;28;20124;-48
2024/02/26 10:15:20;;;;;;;36.78;24.38;;;;;;;13.02;100.00;99414.41;5091102;28;20048;-45
2024/02/26 10:17:48;;;;;;;33.75;23.50;;;;;;;13.03;100.00;99408.09;5090513;28;20397;-46
2024/02/26 10:20:21;;;;;;;35.80;23.77;;;;;;;12.95;100.00;99413.25;5090642;28;20083;-45
2024/02/26 10:22:51;;;;;;;31.02;21.40;;;;;;;12.87;100.00;99413.03;5091073;28;20382;-44
2024/02/26 10:25:19;;;;;;;33.45;21.17;;;;;;;12.95;100.00;99404.38;5090954;28;20047;-46
2024/02/26 10:27:48;;;;;;;30.90;21.48;;;;;;;13.03;100.00;99402.75;5091035;28;20040;-46
2024/02/26 10:30:18;;;;;;;29.33;20.33;;;;;;;13.05;100.00;99403.47;5091040;28;20052;-46
2024/02/26 10:32:48;;;;;;;30.70;20.65;;;;;;;13.21;100.00;99400.38;5091133;28;20044;-45
2024/02/26 10:35:17;;;;;;;31.92;20.60;;;;;;;13.27;100.00;99399.84;5091347;28;20451;-44
2024/02/26 10:37:48;;;;;;;36.08;22.98;;;;;;;13.45;100.00;99392.09;5091368;28;20055;-45
2024/02/26 10:40:17;;;;;;;29.33;20.08;;;;;;;13.73;100.00;99399.44;5090924;28;20048;-46
2024/02/26 10:42:46;;;;;;;33.33;22.15;;;;;;;13.96;100.00;99391.22;5091287;28;20048;-46
2024/02/26 10:45:14;;;;;;;31.20;22.02;;;;;;;13.75;100.00;99392.13;5090953;28;20147;-47
2024/02/26 10:47:43;;;;;;;32.28;21.98;;;;;;;13.93;100.00;99394.19;5091062;28;20051;-46
2024/02/26 10:50:15;;;;;;;35.25;21.60;;;;;;;14.03;100.00;99387.03;5090903;28;20044;-45
2024/02/26 10:52:45;;;;;;;30.42;21.20;;;;;;;14.13;100.00;99382.56;5091199;28;20048;-44
2024/02/26 10:55:18;;;;;;;31.20;19.88;;;;;;;14.10;100.00;99381.97;5090494;28;20051;-46
2024/02/26 10:57:48;;;;;;;28.65;20.75;;;;;;;13.81;100.00;99384.53;5090104;28;20048;-47
2024/02/26 11:00:17;;;;;;;28.00;19.92;;;;;;;14.01;100.00;99375.59;5090612;28;20135;-45
2024/02/26 11:02:47;;;;;;;28.33;19.75;;;;;;;13.97;100.00;99382.19;5090789;28;20152;-45
2024/02/26 11:05:15;;;;;;;32.05;19.95;;;;;;;14.11;100.00;99371.13;5090920;28;20054;-45
2024/02/26 11:07:46;;;;;;;28.25;17.75;;;;;;;14.20;100.00;99372.97;5090727;28;20071;-44
2024/02/26 11:10:17;;;;;;;31.13;17.70;;;;;;;14.28;100.00;99364.22;5090027;28;20523;-49
2024/02/26 11:12:47;;;;;;;23.75;16.88;;;;;;;14.27;100.00;99371.44;5090925;28;20484;-44
2024/02/26 11:15:16;;;;;;;25.90;17.48;;;;;;;14.41;100.00;99370.22;5090364;28;20045;-46
2024/02/26 11:17:47;;;;;;;28.90;17.83;;;;;;;14.44;100.00;99369.91;5090637;28;20415;-46